createdAt,value
2019-01-18T00:02:30.226Z,62.86
2019-01-18T00:04:58.303Z,62.85
2019-01-18T00:07:26.283Z,62.83
2019-01-18T00:09:54.268Z,62.84
2019-01-18T00:12:22.117Z,62.90
2019-01-18T00:14:50.086Z,62.96
2019-01-18T00:17:18.055Z,62.96
2019-01-18T00:19:46.089Z,63.01
2019-01-18T00:22:14.059Z,63.02
2019-01-18T00:24:42.047Z,63.01
2019-01-18T00:27:10.088Z,63.01
2019-01-18T00:29:38.085Z,63.03
2019-01-18T00:32:06.106Z,63.04
2019-01-18T00:34:34.100Z,63.09
2019-01-18T00:37:02.110Z,63.15
2019-01-18T00:39:30.101Z,63.15
2019-01-18T00:41:58.095Z,63.14
2019-01-18T00:44:26.096Z,63.13
2019-01-18T00:46:54.397Z,63.13
2019-01-18T00:49:22.413Z,63.15
2019-01-18T00:51:51.624Z,63.14
2019-01-18T00:54:19.614Z,63.11
2019-01-18T00:56:47.858Z,63.08
2019-01-18T00:59:16.211Z,63.06
2019-01-18T01:01:44.294Z,63.05
2019-01-18T01:04:12.305Z,63.03
2019-01-18T01:06:40.302Z,63.00
2019-01-18T01:09:08.264Z,63.00
2019-01-18T01:11:36.228Z,62.97
2019-01-18T01:14:04.406Z,62.95
2019-01-18T01:16:32.379Z,62.94
2019-01-18T01:19:00.606Z,62.94
2019-01-18T01:21:28.605Z,62.96
2019-01-18T01:23:56.940Z,62.97
2019-01-18T01:26:24.911Z,62.95
2019-01-18T01:28:52.933Z,62.97
2019-01-18T01:31:20.899Z,63.02
2019-01-18T01:33:49.219Z,63.08
2019-01-18T01:36:17.260Z,63.12
2019-01-18T01:38:45.278Z,63.14
2019-01-18T01:41:13.266Z,63.14
2019-01-18T01:43:41.280Z,63.10
2019-01-18T01:46:09.285Z,63.12
2019-01-18T01:48:39.175Z,63.11
2019-01-18T01:51:07.219Z,63.14
2019-01-18T01:53:35.240Z,63.17
2019-01-18T01:56:03.281Z,63.19
2019-01-18T01:58:31.694Z,63.25
2019-01-18T02:00:59.696Z,63.32
2019-01-18T02:03:27.685Z,63.32
2019-01-18T02:05:55.686Z,63.32
2019-01-18T02:08:23.671Z,63.32
2019-01-18T02:11:00.601Z,63.30
2019-01-18T02:13:30.579Z,63.34
2019-01-18T02:15:58.595Z,63.31
2019-01-18T02:18:29.709Z,63.33
2019-01-18T02:20:57.721Z,63.34
2019-01-18T02:23:25.819Z,63.31
2019-01-18T02:25:53.815Z,63.32
2019-01-18T02:28:21.819Z,63.36
2019-01-18T02:30:49.906Z,63.36
2019-01-18T02:33:17.892Z,63.34
2019-01-18T02:35:45.945Z,63.34
2019-01-18T02:38:13.944Z,63.34
2019-01-18T02:40:42.263Z,63.35
2019-01-18T02:43:10.296Z,63.34
2019-01-18T02:45:38.303Z,63.35
2019-01-18T02:48:06.296Z,63.37
2019-01-18T02:50:34.346Z,63.39
2019-01-18T02:53:03.833Z,63.39
2019-01-18T02:55:32.602Z,63.42
2019-01-18T02:58:00.614Z,63.45
2019-01-18T03:00:28.631Z,63.43
2019-01-18T03:02:56.927Z,63.45
2019-01-18T03:05:26.386Z,63.46
2019-01-18T03:07:54.806Z,63.47
2019-01-18T03:10:26.542Z,63.48
2019-01-18T03:12:54.548Z,63.47
2019-01-18T03:15:22.675Z,63.45
2019-01-18T03:17:50.652Z,63.47
2019-01-18T03:20:19.176Z,63.49
2019-01-18T03:22:47.184Z,63.49
2019-01-18T03:25:20.011Z,63.48
2019-01-18T03:27:48.012Z,63.48
2019-01-18T03:30:18.553Z,63.48
2019-01-18T03:32:46.562Z,63.51
2019-01-18T03:35:16.869Z,63.50
2019-01-18T03:37:46.042Z,63.49
2019-01-18T03:40:15.366Z,63.50
2019-01-18T03:42:43.667Z,63.49
2019-01-18T03:45:14.751Z,63.48
2019-01-18T03:47:42.751Z,63.42
2019-01-18T03:50:15.526Z,63.40
2019-01-18T03:52:43.884Z,63.36
2019-01-18T03:55:12.427Z,63.30
2019-01-18T03:57:40.432Z,63.29
2019-01-18T04:00:13.320Z,63.31
2019-01-18T04:02:41.422Z,63.36
2019-01-18T04:05:09.954Z,63.32
2019-01-18T04:07:37.965Z,63.33
2019-01-18T04:10:08.796Z,63.33
2019-01-18T04:12:36.845Z,63.33
2019-01-18T04:15:08.955Z,63.33
2019-01-18T04:17:37.327Z,63.32
2019-01-18T04:20:06.909Z,63.32
2019-01-18T04:22:34.953Z,63.30
2019-01-18T04:25:08.266Z,63.31
2019-01-18T04:27:36.311Z,63.29
2019-01-18T04:30:07.806Z,63.29
2019-01-18T04:32:35.841Z,63.27
2019-01-18T04:35:07.671Z,63.26
2019-01-18T04:37:35.777Z,63.27
2019-01-18T04:40:07.951Z,63.26
2019-01-18T04:42:36.033Z,63.28
2019-01-18T04:45:06.345Z,63.26
2019-01-18T04:47:34.452Z,63.26
2019-01-18T04:50:03.943Z,63.29
2019-01-18T04:52:31.997Z,63.30
2019-01-18T04:55:00.082Z,63.27
2019-01-18T04:57:28.255Z,63.28
2019-01-18T04:59:56.317Z,63.30
2019-01-18T05:02:24.361Z,63.32
2019-01-18T05:04:52.439Z,63.33
2019-01-18T05:07:20.537Z,63.31
2019-01-18T05:09:48.784Z,63.29
2019-01-18T05:12:17.987Z,63.29
2019-01-18T05:14:45.975Z,63.31
2019-01-18T05:17:13.987Z,63.31
2019-01-18T05:19:41.990Z,63.38
2019-01-18T05:22:10.080Z,63.37
2019-01-18T05:24:38.087Z,63.35
2019-01-18T05:27:06.807Z,63.33
2019-01-18T05:29:34.895Z,63.33
2019-01-18T05:32:02.959Z,63.31
2019-01-18T05:34:31.072Z,63.31
2019-01-18T05:36:59.157Z,63.30
2019-01-18T05:39:27.170Z,63.30
2019-01-18T05:41:55.563Z,63.33
2019-01-18T05:44:23.668Z,63.35
2019-01-18T05:46:51.821Z,63.37
2019-01-18T05:49:19.819Z,63.40
2019-01-18T05:51:47.892Z,63.42
2019-01-18T05:54:15.939Z,63.44
2019-01-18T05:56:43.944Z,63.45
2019-01-18T05:59:12.477Z,63.45
2019-01-18T06:01:40.807Z,63.46
2019-01-18T06:04:10.232Z,63.47
2019-01-18T06:06:38.598Z,63.51
2019-01-18T06:09:08.424Z,63.52
2019-01-18T06:11:36.473Z,63.54
2019-01-18T06:14:04.525Z,63.53
2019-01-18T06:16:32.524Z,63.56
2019-01-18T06:19:02.397Z,63.59
2019-01-18T06:21:30.805Z,63.63
2019-01-18T06:23:59.246Z,63.61
2019-01-18T06:26:27.306Z,63.62
2019-01-18T06:28:55.487Z,63.65
2019-01-18T06:31:23.661Z,63.64
2019-01-18T06:33:51.979Z,63.64
2019-01-18T06:36:21.249Z,63.62
2019-01-18T06:38:49.349Z,63.62
2019-01-18T06:41:37.340Z,63.63
2019-01-18T06:44:05.432Z,63.69
2019-01-18T06:46:33.612Z,63.67
2019-01-18T06:49:02.109Z,63.65
2019-01-18T06:51:30.163Z,63.62
2019-01-18T06:53:58.274Z,63.60
2019-01-18T06:56:28.071Z,63.58
2019-01-18T06:58:56.147Z,63.56
2019-01-18T07:01:25.216Z,63.55
2019-01-18T07:03:53.638Z,63.57
2019-01-18T07:06:21.696Z,63.59
2019-01-18T07:08:50.288Z,63.57
2019-01-18T07:11:18.577Z,63.55
2019-01-18T07:13:47.229Z,63.51
2019-01-18T07:16:16.616Z,63.54
2019-01-18T07:18:44.797Z,63.56
2019-01-18T07:21:12.885Z,63.55
2019-01-18T07:23:41.087Z,63.54
2019-01-18T07:26:09.236Z,63.49
2019-01-18T07:28:38.224Z,63.48
2019-01-18T07:31:07.737Z,63.48
2019-01-18T07:33:35.784Z,63.48
2019-01-18T07:36:03.895Z,63.51
2019-01-18T07:38:32.001Z,63.51
2019-01-18T07:41:01.227Z,63.52
2019-01-18T07:43:29.252Z,63.51
2019-01-18T07:45:57.334Z,63.51
2019-01-18T07:48:25.427Z,63.52
2019-01-18T07:50:53.483Z,63.55
2019-01-18T07:55:49.908Z,63.67
2019-01-18T07:58:17.972Z,63.68
2019-01-18T08:00:46.035Z,63.70
2019-01-18T08:03:14.101Z,63.68
2019-01-18T08:05:44.103Z,63.73
2019-01-18T08:08:12.203Z,63.78
2019-01-18T08:10:40.253Z,63.80
2019-01-18T08:13:09.746Z,63.80
2019-01-18T08:15:37.795Z,63.79
2019-01-18T08:18:05.924Z,63.83
2019-01-18T08:20:33.981Z,63.85
2019-01-18T08:23:02.330Z,63.87
2019-01-18T08:25:30.407Z,63.87
2019-01-18T08:27:59.031Z,63.86
2019-01-18T08:30:29.374Z,63.90
2019-01-18T08:32:58.471Z,63.94
2019-01-18T08:35:27.865Z,63.96
2019-01-18T08:37:55.942Z,63.93
2019-01-18T08:40:38.770Z,63.96
2019-01-18T08:43:10.938Z,63.94
2019-01-18T08:45:49.030Z,63.96
2019-01-18T08:48:18.348Z,63.92
2019-01-18T08:50:46.500Z,63.87
2019-01-18T08:53:14.694Z,63.84
2019-01-18T08:55:42.775Z,63.84
2019-01-18T08:58:12.611Z,63.84
2019-01-18T09:00:40.888Z,63.84
2019-01-18T09:03:10.458Z,63.80
2019-01-18T09:05:38.560Z,63.76
2019-01-18T09:08:06.632Z,63.81
2019-01-18T09:10:34.991Z,63.82
2019-01-18T09:13:03.139Z,63.81
2019-01-18T09:15:31.217Z,63.80
2019-01-18T09:17:59.269Z,63.79
2019-01-18T09:20:27.990Z,63.78
2019-01-18T09:22:57.597Z,63.79
2019-01-18T09:25:25.697Z,63.75
2019-01-18T09:27:54.187Z,63.74
2019-01-18T09:30:25.801Z,63.77
2019-01-18T09:32:54.883Z,63.70
2019-01-18T09:35:24.041Z,63.65
2019-01-18T09:37:52.558Z,63.68
2019-01-18T09:40:26.951Z,63.72
2019-01-18T09:42:55.021Z,63.75
2019-01-18T09:45:24.334Z,63.76
2019-01-18T09:47:52.402Z,63.76
2019-01-18T09:50:23.652Z,63.79
2019-01-18T09:52:52.050Z,63.82
2019-01-18T09:55:21.817Z,63.83
2019-01-18T09:57:49.998Z,63.82
2019-01-18T10:00:24.720Z,63.80
2019-01-18T10:02:52.842Z,63.72
2019-01-18T10:05:21.731Z,63.67
2019-01-18T10:07:49.809Z,63.67
2019-01-18T10:10:18.961Z,63.70
2019-01-18T10:12:47.710Z,63.62
2019-01-18T10:15:22.475Z,63.52
2019-01-18T10:17:50.880Z,63.49
2019-01-18T10:20:19.021Z,63.41
2019-01-18T10:22:47.586Z,63.32
2019-01-18T10:25:15.907Z,63.22
2019-01-18T10:27:44.021Z,62.94
2019-01-18T10:30:16.855Z,62.45
2019-01-18T10:32:45.726Z,61.99
2019-01-18T10:35:15.822Z,61.56
2019-01-18T10:37:45.962Z,61.32
2019-01-18T10:40:14.786Z,61.05
2019-01-18T10:42:44.448Z,60.73
2019-01-18T10:45:13.557Z,60.26
2019-01-18T10:47:41.636Z,59.85
2019-01-18T10:50:16.004Z,59.54
2019-01-18T10:52:44.088Z,59.27
2019-01-18T10:55:12.275Z,59.08
2019-01-18T10:57:40.579Z,58.88
2019-01-18T11:00:13.695Z,58.74
2019-01-18T11:02:41.696Z,58.53
2019-01-18T11:05:10.538Z,58.29
2019-01-18T11:07:38.570Z,58.18
2019-01-18T11:10:08.688Z,58.23
2019-01-18T11:12:36.717Z,58.35
2019-01-18T11:15:08.954Z,58.48
2019-01-18T11:17:36.992Z,58.51
2019-01-18T11:20:11.522Z,58.53
2019-01-18T11:22:39.494Z,58.55
2019-01-18T11:25:09.005Z,58.86
2019-01-18T11:27:37.028Z,59.02
2019-01-18T11:30:09.441Z,59.04
2019-01-18T11:32:37.432Z,59.12
2019-01-18T11:35:05.708Z,59.31
2019-01-18T11:37:33.705Z,59.36
2019-01-18T11:40:01.847Z,59.38
2019-01-18T11:42:30.127Z,59.38
2019-01-18T11:44:58.140Z,59.30
2019-01-18T11:47:26.144Z,59.26
2019-01-18T11:49:54.320Z,59.27
2019-01-18T11:52:22.336Z,59.38
2019-01-18T11:54:50.505Z,59.46
2019-01-18T11:57:18.550Z,59.59
2019-01-18T11:59:49.080Z,59.63
2019-01-18T12:02:22.022Z,59.69
2019-01-18T12:04:47.101Z,59.72
2019-01-18T12:07:15.120Z,59.84
2019-01-18T12:09:43.209Z,59.86
2019-01-18T12:12:11.246Z,59.79
2019-01-18T12:14:39.232Z,59.75
2019-01-18T12:17:08.258Z,59.72
2019-01-18T12:19:37.290Z,59.71
2019-01-18T12:22:05.295Z,59.76
2019-01-18T12:24:33.269Z,59.69
2019-01-18T12:27:01.302Z,59.66
2019-01-18T12:29:29.279Z,59.65
2019-01-18T12:31:57.451Z,59.66
2019-01-18T12:34:25.425Z,59.69
2019-01-18T12:36:58.853Z,59.69
2019-01-18T12:39:23.382Z,59.64
2019-01-18T12:41:51.382Z,59.57
2019-01-18T12:44:20.082Z,59.47
2019-01-18T12:46:48.443Z,59.44
2019-01-18T12:49:16.435Z,59.35
2019-01-18T12:51:44.420Z,59.26
2019-01-18T12:54:12.570Z,59.23
2019-01-18T12:56:40.732Z,59.22
2019-01-18T12:59:09.943Z,59.21
2019-01-18T13:01:38.013Z,59.19
2019-01-18T13:04:08.258Z,59.13
2019-01-18T13:06:36.152Z,59.19
2019-01-18T13:09:06.456Z,59.26
2019-01-18T13:11:34.786Z,59.34
2019-01-18T13:14:03.407Z,59.47
2019-01-18T13:16:42.076Z,59.55
2019-01-18T13:19:23.458Z,59.59
2019-01-18T13:21:51.479Z,59.64
2019-01-18T13:24:19.692Z,59.64
2019-01-18T13:26:47.750Z,59.59
2019-01-18T13:29:15.754Z,59.58
2019-01-18T13:31:44.034Z,59.55
2019-01-18T13:34:12.057Z,59.51
2019-01-18T13:36:40.077Z,59.47
2019-01-18T13:39:10.499Z,59.40
2019-01-18T13:41:38.644Z,59.26
2019-01-18T13:44:06.637Z,59.21
2019-01-18T13:46:34.756Z,59.21
2019-01-18T13:49:03.499Z,59.18
2019-01-18T13:51:31.537Z,59.13
2019-01-18T13:53:59.601Z,59.07
2019-01-18T13:56:27.722Z,59.05
2019-01-18T13:58:55.723Z,58.98
2019-01-18T14:01:23.713Z,58.99
2019-01-18T14:03:51.765Z,58.98
2019-01-18T14:06:19.783Z,58.91
2019-01-18T14:08:47.873Z,58.86
2019-01-18T14:11:17.361Z,58.85
2019-01-18T14:13:45.364Z,58.82
2019-01-18T14:16:13.419Z,58.82
2019-01-18T14:18:41.564Z,58.83
2019-01-18T14:21:10.866Z,58.81
2019-01-18T14:23:38.935Z,58.79
2019-01-18T14:26:06.921Z,58.72
2019-01-18T14:28:35.096Z,58.67
2019-01-18T14:31:03.099Z,58.66
2019-01-18T14:33:31.129Z,58.61
2019-01-18T14:35:59.537Z,58.57
2019-01-18T14:38:27.942Z,58.53
2019-01-18T14:40:56.125Z,58.41
2019-01-18T14:43:25.777Z,58.29
2019-01-18T14:45:53.921Z,58.20
2019-01-18T14:48:21.979Z,58.17
2019-01-18T14:50:50.776Z,58.23
2019-01-18T14:53:19.193Z,58.25
2019-01-18T14:55:47.422Z,58.25
2019-01-18T14:58:15.622Z,58.20
2019-01-18T15:00:43.741Z,58.18
2019-01-18T15:03:13.543Z,58.17
2019-01-18T15:05:41.623Z,58.11
2019-01-18T15:08:09.645Z,58.02
2019-01-18T15:10:37.641Z,57.92
2019-01-18T15:13:13.298Z,57.82
2019-01-18T15:15:41.411Z,57.69
2019-01-18T15:18:10.564Z,57.59
2019-01-18T15:20:39.271Z,57.57
2019-01-18T15:23:07.355Z,57.54
2019-01-18T15:25:35.372Z,57.52
2019-01-18T15:28:03.630Z,57.49
2019-01-18T15:30:31.660Z,57.50
2019-01-18T15:33:01.123Z,57.46
2019-01-18T15:35:32.445Z,57.46
2019-01-18T15:38:00.674Z,57.49
2019-01-18T15:40:30.752Z,57.47
2019-01-18T15:43:01.025Z,57.48
2019-01-18T15:45:29.207Z,57.48
2019-01-18T15:47:57.442Z,57.47
2019-01-18T15:50:29.823Z,57.46
2019-01-18T15:52:58.570Z,57.50
2019-01-18T15:55:27.004Z,57.53
2019-01-18T15:57:55.035Z,57.57
2019-01-18T16:00:30.051Z,57.60
2019-01-18T16:02:58.873Z,57.60
2019-01-18T16:05:27.181Z,57.65
2019-01-18T16:07:55.490Z,57.64
2019-01-18T16:10:25.224Z,57.70
2019-01-18T16:12:54.220Z,57.73
2019-01-18T16:15:49.266Z,57.74
2019-01-18T16:18:18.215Z,57.75
2019-01-18T16:20:47.212Z,57.76
2019-01-18T16:23:15.296Z,57.81
2019-01-18T16:25:43.320Z,57.84
2019-01-18T16:28:12.145Z,57.85
2019-01-18T16:30:41.345Z,57.85
2019-01-18T16:33:10.527Z,57.86
2019-01-18T16:35:39.136Z,57.90
2019-01-18T16:38:09.343Z,57.91
2019-01-18T16:40:37.615Z,57.93
2019-01-18T16:43:19.400Z,57.95
2019-01-18T16:45:47.419Z,57.95
2019-01-18T16:48:15.504Z,57.99
2019-01-18T16:50:43.514Z,58.00
2019-01-18T16:53:13.223Z,58.08
2019-01-18T16:55:41.245Z,58.13
2019-01-18T16:58:09.548Z,58.17
2019-01-18T17:00:39.811Z,58.22
2019-01-18T17:03:08.182Z,58.27
2019-01-18T17:05:36.848Z,58.32
2019-01-18T17:08:05.344Z,58.33
2019-01-18T17:10:35.427Z,58.32
2019-01-18T17:13:04.120Z,58.32
2019-01-18T17:15:33.183Z,58.34
2019-01-18T17:18:01.410Z,58.39
2019-01-18T17:20:32.812Z,58.40
2019-01-18T17:23:00.858Z,58.45
2019-01-18T17:25:28.978Z,58.47
2019-01-18T17:27:57.067Z,58.52
2019-01-18T17:30:25.611Z,58.57
2019-01-18T17:32:53.739Z,58.59
2019-01-18T17:35:44.887Z,58.62
2019-01-18T17:39:01.306Z,58.67
2019-01-18T17:42:42.555Z,58.73
2019-01-18T17:45:57.325Z,58.74
2019-01-18T17:49:18.765Z,58.81
2019-01-18T17:52:50.396Z,58.89
2019-01-18T17:56:37.733Z,58.97
2019-01-18T18:00:20.486Z,59.03
2019-01-18T18:03:36.523Z,59.06
2019-01-18T18:06:41.031Z,59.12
2019-01-18T18:10:08.321Z,59.17
2019-01-18T18:14:02.106Z,59.23
2019-01-18T18:17:27.123Z,59.27
2019-01-18T18:20:31.924Z,59.33
2019-01-18T18:23:37.878Z,59.39
2019-01-18T18:27:22.299Z,59.44
2019-01-18T18:30:33.621Z,59.47
2019-01-18T18:33:34.259Z,59.50
2019-01-18T18:37:08.445Z,59.50
2019-01-18T18:40:49.587Z,59.51
2019-01-18T18:43:51.641Z,59.53
2019-01-18T18:47:07.410Z,59.55
2019-01-18T18:50:27.900Z,59.58
2019-01-18T18:53:38.981Z,59.59
2019-01-18T18:57:12.863Z,59.64
2019-01-18T19:00:36.169Z,59.68
2019-01-18T19:04:14.301Z,59.68
2019-01-18T19:07:26.270Z,59.71
2019-01-18T19:10:56.795Z,59.74
2019-01-18T19:14:38.471Z,59.83
2019-01-18T19:17:56.501Z,59.83
2019-01-18T19:21:28.216Z,59.94
2019-01-18T19:24:42.468Z,60.00
2019-01-18T19:28:22.310Z,60.06
2019-01-18T19:31:45.667Z,60.10
2019-01-18T19:34:37.463Z,60.15
2019-01-18T19:37:40.724Z,60.20
2019-01-18T19:41:21.334Z,60.27
2019-01-18T19:44:58.752Z,60.31
2019-01-18T19:48:30.221Z,60.28
2019-01-18T19:51:53.795Z,60.31
2019-01-18T19:54:39.140Z,60.35
2019-01-18T19:58:15.878Z,60.38
2019-01-18T20:01:22.588Z,60.45
2019-01-18T20:04:50.548Z,60.46
2019-01-18T20:08:14.015Z,60.50
2019-01-18T20:11:54.973Z,60.51
2019-01-18T20:15:49.117Z,60.52
2019-01-18T20:19:24.669Z,60.54
2019-01-18T20:23:10.372Z,60.53
2019-01-18T20:25:58.722Z,60.59
2019-01-18T20:29:15.044Z,60.61
2019-01-18T20:32:52.671Z,60.61
2019-01-18T20:36:35.739Z,60.59
2019-01-18T20:40:32.841Z,60.58
2019-01-18T20:43:34.932Z,60.63
2019-01-18T20:47:10.624Z,60.66
2019-01-18T20:50:24.582Z,60.71
2019-01-18T20:53:31.587Z,60.75
2019-01-18T20:56:37.322Z,60.80
2019-01-18T20:59:40.515Z,60.84
2019-01-18T21:02:40.649Z,60.83
2019-01-18T21:06:15.437Z,60.86
2019-01-18T21:09:16.299Z,60.86
2019-01-18T21:12:38.299Z,60.85
2019-01-18T21:15:18.639Z,60.90
2019-01-18T21:18:11.263Z,60.95
2019-01-18T21:21:52.854Z,60.96
2019-01-18T21:25:08.134Z,60.95
2019-01-18T21:28:42.569Z,60.90
2019-01-18T21:32:11.972Z,60.92
2019-01-18T21:35:23.139Z,60.92
2019-01-18T21:38:46.432Z,60.92
2019-01-18T21:41:58.342Z,60.94
2019-01-18T21:45:54.612Z,60.96
2019-01-18T21:49:14.181Z,60.99
2019-01-18T21:52:34.379Z,60.98
2019-01-18T21:55:58.684Z,60.99
2019-01-18T21:59:32.961Z,61.01
2019-01-18T22:03:10.165Z,61.06
2019-01-18T22:06:24.125Z,61.07
2019-01-18T22:09:14.594Z,61.06
2019-01-18T22:12:47.308Z,61.07
2019-01-18T22:15:53.117Z,61.13
2019-01-18T22:19:22.948Z,61.13
2019-01-18T22:23:06.697Z,61.12
2019-01-18T22:27:02.921Z,61.10
2019-01-18T22:30:25.128Z,61.08
2019-01-18T22:33:47.572Z,61.09
2019-01-18T22:37:06.849Z,61.07
2019-01-18T22:40:12.006Z,61.08
2019-01-18T22:43:35.842Z,61.13
2019-01-18T22:46:46.475Z,61.12
2019-01-18T22:49:39.361Z,61.14
2019-01-18T22:53:23.067Z,61.15
2019-01-18T22:56:35.915Z,61.22
2019-01-18T23:00:11.555Z,61.21
2019-01-18T23:03:42.289Z,61.28
2019-01-18T23:07:15.339Z,61.28
2019-01-18T23:10:31.926Z,61.28
2019-01-18T23:14:09.529Z,61.37
2019-01-18T23:17:37.110Z,61.43
2019-01-18T23:21:08.051Z,61.43
2019-01-18T23:24:27.864Z,61.46
2019-01-18T23:27:46.855Z,61.49
2019-01-18T23:31:10.085Z,61.49
2019-01-18T23:34:20.802Z,61.49
2019-01-18T23:37:23.151Z,61.52
2019-01-18T23:41:06.878Z,61.55
2019-01-18T23:44:43.420Z,61.56
2019-01-18T23:48:11.145Z,61.56
2019-01-18T23:51:36.652Z,61.64
2019-01-18T23:55:02.937Z,61.69
2019-01-18T23:58:52.972Z,61.72
